Flight Track Log - Related Links

Times and Time Zones

All times are in EDT time to prevent confusion due to time zone crossing. See the ASQ5958 flight status page for this flight to view local times or setup timezone preferences in your user account.

Time Position Orientation Groundspeed Altitude Reporting Facility
EDT Latitude Longitude Course Direction KTS MPH feet Rate Location/Type
Wed 06:41:58 PM 41.9167 -87.9000 169° South 172 198 3,300  Level Chicago TRACON
Wed 06:43:42 PM 41.8178 -87.8417 156° South 241 277 6,900 2,169 Climbing Chicago Center
Wed 06:44:44 PM 41.7544 -87.7969 152° Southeast 255 293 9,300 2,129 Climbing Chicago Center
Wed 06:45:46 PM 41.6881 -87.7519 153° Southeast 265 305 11,300 1,694 Climbing Chicago Center
Wed 06:46:48 PM 41.6142 -87.7017 153° Southeast 291 335 12,800 1,065 Climbing Chicago Center
Wed 06:47:00 PM 41.4223 -87.5185 169° South  Level Estimated
Wed 06:47:50 PM 41.5314 -87.6442 153° Southeast 327 376 13,500  Level Chicago Center
Wed 06:48:52 PM 41.4431 -87.5842 153° Southeast 351 404 15,000 1,548 Climbing Chicago Center
Wed 06:49:54 PM 41.3275 -87.5547 169° South 354 407 16,700 1,452 Climbing Chicago Center
Wed 06:50:56 PM 41.2278 -87.5389 173° South 358 412 18,000 1,306 Climbing Chicago Center
Wed 06:51:58 PM 41.1278 -87.5136 169° South 365 420 19,400 1,355 Climbing Chicago Center
Wed 06:53:00 PM 41.0278 -87.4867 169° South 367 422 20,800 1,210 Climbing Chicago Center
Wed 06:54:02 PM 40.9225 -87.4578 168° South 382 440 21,900 1,008 Climbing Chicago Center
Wed 06:55:05 PM 40.7917 -87.4231 169° South 400 460 22,900 1,008 Climbing Chicago Center
Wed 06:56:07 PM 40.6792 -87.3944 169° South 411 473 24,000 1,258 Climbing Chicago Center
Wed 06:57:09 PM 40.5686 -87.3650 169° South 407 468 25,500 1,403 Climbing Chicago Center
Wed 06:58:11 PM 40.4614 -87.3358 168° South 397 457 26,900 1,500 Climbing Chicago Center
Wed 06:59:13 PM 40.3597 -87.2500 147° Southeast 382 440 28,600 1,548 Climbing Chicago Center
Wed 07:00:15 PM 40.2742 -87.1692 144° Southeast 379 436 30,100 1,161 Climbing Chicago Center
Wed 07:01:17 PM 40.1883 -87.0892 145° Southeast 378 435 31,000 435 Climbing Chicago Center
Wed 07:02:19 PM 40.0942 -87.0025 145° Southeast 406 467 31,000  Level Chicago Center
Wed 07:03:21 PM 39.9944 -86.9100 145° Southeast 432 497 31,000  Level Chicago Center
Wed 07:04:21 PM 39.8892 -86.8225 147° Southeast 443 510 31,000  Level Indianapolis Center
Wed 07:05:23 PM 39.7842 -86.7356 148° Southeast 447 514 31,000  Level Indianapolis Center
Wed 07:06:25 PM 39.6819 -86.6064 136° Southeast 455 524 31,000  Level Indianapolis Center
Wed 07:07:27 PM 39.6192 -86.4633 120° Southeast 458 527 31,000  Level Indianapolis Center
Wed 07:08:29 PM 39.5569 -86.3214 120° Southeast 459 528 31,000  Level Indianapolis Center
Wed 07:09:31 PM 39.4944 -86.1781 119° Southeast 461 531 31,000  Level Indianapolis Center
Wed 07:10:33 PM 39.4156 -86.0158 122° Southeast 463 533 31,000  Level Indianapolis Center
Wed 07:11:35 PM 39.3083 -85.9328 149° Southeast 447 514 31,000  Level Indianapolis Center
Wed 07:12:37 PM 39.1964 -85.8628 154° Southeast 445 512 31,000  Level Indianapolis Center
Wed 07:13:39 PM 39.0825 -85.7922 154° Southeast 449 517 31,000  Level Indianapolis Center
Wed 07:14:41 PM 38.9694 -85.7208 154° Southeast 450 518 31,000  Level Indianapolis Center
Wed 07:15:43 PM 38.8561 -85.6506 154° Southeast 449 517 31,000  Level Indianapolis Center
Wed 07:16:45 PM 38.7425 -85.5797 154° Southeast 449 517 31,000  Level Indianapolis Center
Wed 07:17:47 PM 38.6231 -85.5053 154° Southeast 452 520 31,000  Level Indianapolis Center
Wed 07:18:49 PM 38.5108 -85.4358 154° Southeast 447 514 31,000  Level Indianapolis Center
Wed 07:19:51 PM 38.3956 -85.3653 154° Southeast 453 521 31,000  Level Indianapolis Center
Wed 07:20:53 PM 38.2583 -85.2825 155° Southeast 452 520 31,000  Level Indianapolis Center
Wed 07:21:55 PM 38.1439 -85.2114 154° Southeast 454 522 31,000  Level Indianapolis Center
Wed 07:22:57 PM 38.0239 -85.1397 155° Southeast 450 518 31,000  Level Indianapolis Center
Wed 07:23:59 PM 37.9094 -85.0708 155° Southeast 454 522 31,000  Level Indianapolis Center
Wed 07:25:01 PM 37.7967 -85.0017 154° Southeast 450 518 31,000  Level Indianapolis Center
Wed 07:26:03 PM 37.6842 -84.9331 154° Southeast 449 517 31,000  Level Indianapolis Center
Wed 07:27:04 PM 37.5711 -84.8656 155° Southeast 448 516 31,000  Level Indianapolis Center
Wed 07:28:06 PM 37.4572 -84.7989 155° Southeast 451 519 31,000 -290 Level Indianapolis Center
Wed 07:29:08 PM 37.3244 -84.7192 154° Southeast 452 520 30,400 -1,016 Descending Indianapolis Center
Wed 07:30:10 PM 37.2136 -84.6550 155° Southeast 442 509 28,900 -1,887 Descending Indianapolis Center
Wed 07:31:12 PM 37.1058 -84.5903 154° Southeast 433 498 26,500 -2,565 Descending Indianapolis Center
Wed 07:32:14 PM 36.9900 -84.5222 155° Southeast 442 509 23,600 -2,244 Descending Indianapolis Center
Wed 07:33:15 PM 36.8875 -84.4625 155° Southeast 424 488 21,900 -1,756 Descending Indianapolis Center
Wed 07:34:17 PM 36.7856 -84.4033 155° Southeast 410 472 20,000 -2,274 Descending Indianapolis Center
Wed 07:35:19 PM 36.6694 -84.3347 155° Southeast 400 460 17,200 -2,565 Descending Indianapolis Center
Wed 07:36:21 PM 36.5722 -84.2786 155° Southeast 390 449 14,700 -2,323 Descending Indianapolis Center
Wed 07:37:23 PM 36.4728 -84.2203 155° Southeast 372 428 12,400 -1,805 Descending Indianapolis Center
Wed 07:38:24 PM 36.3908 -84.1736 155° Southeast 334 384 11,000 -743 Descending Indianapolis Center
Wed 07:39:16 PM 36.3336 -84.1444 158° South 326 375 11,000  Level Atlanta Center
Wed 07:40:16 PM 36.2522 -84.0981 155° Southeast 305 351 11,000 -350 Level Atlanta Center
Wed 07:41:16 PM 36.1814 -84.0592 156° South 291 335 10,300 -1,000 Descending Atlanta Center
Wed 07:42:16 PM 36.1083 -84.0492 174° South 265 305 9,000 -1,350 Descending Atlanta Center
Wed 07:43:16 PM 36.0417 -84.0925 208° Southwest 260 299 7,600 -1,000 Descending Atlanta Center
Wed 07:44:16 PM 35.9747 -84.1311 205° Southwest 260 299 7,000 -400 Descending Atlanta Center
Wed 07:45:16 PM 35.9081 -84.1694 205° Southwest 266 306 6,800 -700 Descending Atlanta Center
Wed 07:46:16 PM 35.8433 -84.2078 206° Southwest 271 312 5,600 -900 Descending Atlanta Center
Wed 07:47:16 PM 35.7808 -84.2231 191° South 250 288 5,000 -600 Descending Atlanta Center
Wed 07:49:00 PM 35.8105 -83.9977 81° East  Level Estimated
Wed 07:56:00 PM 35.8110 -83.9940 81° East  Level Estimated
Wed 07:57:00 PM 35.8110 -83.9940 39° Northeast  Level Estimated
Wed 07:58:00 PM 35.8110 -83.9940 39° Northeast  Level Estimated

Login

Don't have an account? Register now (free) for customized features, flight alerts, and more!